createdAt,value
2018-05-16T00:01:24.228Z,78.25
2018-05-16T00:03:52.134Z,79.14
2018-05-16T00:06:19.731Z,78.91
2018-05-16T00:08:47.346Z,78.48
2018-05-16T00:11:14.946Z,78.38
2018-05-16T00:13:42.570Z,79.17
2018-05-16T00:16:10.165Z,79.24
2018-05-16T00:18:37.759Z,79.20
2018-05-16T00:21:05.386Z,79.61
2018-05-16T00:23:32.997Z,79.78
2018-05-16T00:26:00.617Z,79.55
2018-05-16T00:28:28.212Z,80.28
2018-05-16T00:30:55.827Z,80.20
2018-05-16T00:33:23.455Z,80.37
2018-05-16T00:35:51.054Z,81.22
2018-05-16T00:38:18.671Z,81.48
2018-05-16T00:40:46.271Z,80.96
2018-05-16T00:43:13.930Z,80.84
2018-05-16T00:45:41.529Z,80.36
2018-05-16T00:48:09.152Z,80.64
2018-05-16T00:50:36.773Z,80.26
2018-05-16T00:53:04.376Z,80.60
2018-05-16T00:55:31.996Z,80.92
2018-05-16T00:57:59.589Z,80.77
2018-05-16T01:00:27.214Z,80.73
2018-05-16T01:02:54.816Z,80.87
2018-05-16T01:05:22.595Z,81.57
2018-05-16T01:07:50.203Z,81.45
2018-05-16T01:10:17.807Z,82.03
2018-05-16T01:12:45.426Z,81.54
2018-05-16T01:15:13.021Z,82.15
2018-05-16T01:17:40.649Z,81.89
2018-05-16T01:20:08.357Z,82.98
2018-05-16T01:22:36.130Z,83.17
2018-05-16T01:25:03.732Z,83.87
2018-05-16T01:27:31.418Z,84.71
2018-05-16T01:29:59.039Z,84.58
2018-05-16T01:32:26.643Z,85.11
2018-05-16T01:34:54.263Z,85.71
2018-05-16T01:37:21.855Z,84.66
2018-05-16T01:39:49.742Z,84.87
2018-05-16T01:42:17.288Z,84.52
2018-05-16T01:44:44.975Z,84.71
2018-05-16T01:47:12.599Z,84.91
2018-05-16T01:49:40.205Z,84.82
2018-05-16T01:52:07.829Z,84.50
2018-05-16T01:54:35.431Z,84.45
2018-05-16T01:57:03.200Z,84.38
2018-05-16T01:59:30.815Z,84.59
2018-05-16T02:01:58.426Z,84.19
2018-05-16T02:04:26.054Z,84.03
2018-05-16T02:06:53.651Z,83.71
2018-05-16T02:09:21.286Z,83.61
2018-05-16T02:11:48.887Z,83.79
2018-05-16T02:14:16.946Z,84.31
2018-05-16T02:16:44.550Z,84.50
2018-05-16T02:19:12.174Z,84.27
2018-05-16T02:21:39.795Z,84.52
2018-05-16T02:24:07.402Z,84.47
2018-05-16T02:26:35.026Z,84.59
2018-05-16T02:29:02.622Z,84.32
2018-05-16T02:31:30.264Z,84.69
2018-05-16T02:33:57.878Z,84.61
2018-05-16T02:36:25.470Z,84.09
2018-05-16T02:38:53.162Z,84.12
2018-05-16T02:41:20.758Z,84.49
2018-05-16T02:43:48.591Z,85.11
2018-05-16T02:46:16.195Z,84.67
2018-05-16T02:48:43.799Z,84.89
2018-05-16T02:51:11.423Z,84.53
2018-05-16T02:53:39.045Z,84.55
2018-05-16T02:56:06.674Z,85.04
2018-05-16T02:58:34.271Z,85.49
2018-05-16T03:01:01.899Z,85.17
2018-05-16T03:03:29.546Z,84.70
2018-05-16T03:05:57.447Z,84.71
2018-05-16T03:08:25.042Z,84.93
2018-05-16T03:10:52.643Z,85.28
2018-05-16T03:13:20.280Z,85.16
2018-05-16T03:15:47.878Z,85.16
2018-05-16T03:18:15.495Z,85.21
2018-05-16T03:20:43.087Z,85.99
2018-05-16T03:23:10.888Z,86.12
2018-05-16T03:25:38.483Z,86.09
2018-05-16T03:28:06.087Z,85.64
2018-05-16T03:30:33.706Z,85.61
2018-05-16T03:33:01.343Z,85.38
2018-05-16T03:35:28.977Z,85.84
2018-05-16T03:37:56.578Z,86.07
2018-05-16T03:40:24.218Z,86.23
2018-05-16T03:42:51.810Z,87.14
2018-05-16T03:45:19.418Z,88.16
2018-05-16T03:47:47.038Z,87.69
2018-05-16T03:50:14.643Z,88.14
2018-05-16T03:52:42.261Z,89.20
2018-05-16T03:55:09.862Z,89.42
2018-05-16T03:57:49.506Z,89.72
2018-05-16T04:00:28.984Z,89.77
2018-05-16T04:03:08.631Z,90.08
2018-05-16T04:05:36.230Z,90.66
2018-05-16T04:08:03.862Z,90.39
2018-05-16T04:10:31.491Z,89.94
2018-05-16T04:12:59.098Z,90.24
2018-05-16T04:15:26.723Z,90.78
2018-05-16T04:17:54.321Z,90.59
2018-05-16T04:20:21.959Z,90.41
2018-05-16T04:22:49.550Z,90.02
2018-05-16T04:25:17.167Z,90.23
2018-05-16T04:27:45.012Z,90.37
2018-05-16T04:30:12.620Z,89.85
2018-05-16T04:32:40.344Z,89.97
2018-05-16T04:35:07.882Z,90.39
2018-05-16T04:37:35.581Z,90.19
2018-05-16T04:40:03.345Z,90.50
2018-05-16T04:42:30.946Z,90.18
2018-05-16T04:44:58.574Z,89.79
2018-05-16T04:47:26.178Z,90.01
2018-05-16T04:49:53.803Z,89.61
2018-05-16T04:52:21.417Z,89.74
2018-05-16T04:54:49.236Z,90.04
2018-05-16T04:57:16.870Z,89.77
2018-05-16T04:59:44.481Z,89.66
2018-05-16T05:02:12.111Z,89.84
2018-05-16T05:04:39.759Z,89.84
2018-05-16T05:07:07.422Z,88.97
2018-05-16T05:09:35.037Z,88.79
2018-05-16T05:12:02.639Z,88.90
2018-05-16T05:14:30.270Z,88.41
2018-05-16T05:16:57.874Z,88.39
2018-05-16T05:19:25.706Z,89.32
2018-05-16T05:21:53.298Z,88.98
2018-05-16T05:24:20.891Z,88.62
2018-05-16T05:26:48.515Z,88.56
2018-05-16T05:29:16.126Z,88.38
2018-05-16T05:31:43.755Z,88.51
2018-05-16T05:34:11.363Z,88.41
2018-05-16T05:36:39.014Z,89.52
2018-05-16T05:39:06.619Z,89.28
2018-05-16T05:41:34.242Z,88.72
2018-05-16T05:44:01.868Z,88.20
2018-05-16T05:46:29.525Z,88.08
2018-05-16T05:48:57.159Z,88.42
2018-05-16T05:51:24.750Z,87.75
2018-05-16T05:53:52.486Z,87.92
2018-05-16T05:56:20.088Z,87.68
2018-05-16T05:58:47.702Z,87.41
2018-05-16T06:01:15.326Z,87.39
2018-05-16T06:03:42.919Z,87.41
2018-05-16T06:06:10.547Z,86.35
2018-05-16T06:08:38.155Z,86.98
2018-05-16T06:11:05.951Z,87.62
2018-05-16T06:13:33.555Z,86.94
2018-05-16T06:16:01.178Z,87.60
2018-05-16T06:18:28.799Z,86.96
2018-05-16T06:20:56.403Z,87.25
2018-05-16T06:23:24.036Z,87.04
2018-05-16T06:25:51.656Z,87.52
2018-05-16T06:28:19.486Z,86.81
2018-05-16T06:30:47.092Z,86.22
2018-05-16T06:33:14.711Z,85.04
2018-05-16T06:35:42.552Z,85.07
2018-05-16T06:38:10.151Z,85.72
2018-05-16T06:40:37.782Z,85.61
2018-05-16T06:43:05.386Z,86.77
2018-05-16T06:45:33.116Z,85.14
2018-05-16T06:48:00.779Z,85.04
2018-05-16T06:50:28.378Z,85.13
2018-05-16T06:52:56.018Z,84.49
2018-05-16T06:55:23.627Z,85.41
2018-05-16T06:57:51.258Z,84.64
2018-05-16T07:00:18.885Z,85.13
2018-05-16T07:02:46.545Z,83.36
2018-05-16T07:05:14.154Z,84.34
2018-05-16T07:07:41.802Z,85.06
2018-05-16T07:10:09.538Z,84.50
2018-05-16T07:12:37.130Z,84.42
2018-05-16T07:15:04.807Z,84.37
2018-05-16T07:17:32.395Z,84.08
2018-05-16T07:20:00.139Z,85.68
2018-05-16T07:22:27.758Z,85.71
2018-05-16T07:24:55.414Z,86.16
2018-05-16T07:27:33.883Z,85.23
2018-05-16T07:30:02.906Z,86.02
2018-05-16T07:32:30.630Z,86.38
2018-05-16T07:34:58.164Z,85.81
2018-05-16T07:37:26.132Z,84.03
2018-05-16T07:39:53.763Z,85.12
2018-05-16T07:42:21.355Z,83.49
2018-05-16T07:44:48.979Z,81.84
2018-05-16T07:47:16.576Z,80.55
2018-05-16T07:49:44.214Z,82.06
2018-05-16T07:52:11.820Z,80.61
2018-05-16T07:54:39.653Z,80.44
2018-05-16T07:57:07.250Z,78.78
2018-05-16T07:59:34.877Z,77.88
2018-05-16T08:02:02.500Z,77.46
2018-05-16T08:04:30.182Z,76.42
2018-05-16T08:06:57.812Z,73.46
2018-05-16T08:09:25.424Z,75.06
2018-05-16T08:11:53.490Z,75.68
2018-05-16T08:14:21.092Z,76.43
2018-05-16T08:16:48.690Z,79.07
2018-05-16T08:19:16.318Z,75.48
2018-05-16T08:21:43.925Z,76.49
2018-05-16T08:24:11.558Z,73.67
2018-05-16T08:26:39.164Z,72.62
2018-05-16T08:29:06.929Z,74.46
2018-05-16T08:31:34.551Z,72.66
2018-05-16T08:34:15.726Z,74.89
2018-05-16T08:36:44.243Z,73.87
2018-05-16T08:39:11.903Z,73.81
2018-05-16T08:41:39.585Z,71.60
2018-05-16T08:44:07.248Z,72.55
2018-05-16T08:46:34.905Z,71.38
2018-05-16T08:49:02.503Z,69.47
2018-05-16T08:51:30.265Z,68.22
2018-05-16T08:53:57.887Z,67.84
2018-05-16T08:56:25.546Z,67.36
2018-05-16T08:58:53.275Z,65.95
2018-05-16T09:01:21.136Z,65.33
2018-05-16T09:03:49.138Z,65.10
2018-05-16T09:06:16.750Z,64.52
2018-05-16T09:08:44.486Z,63.34
2018-05-16T09:11:12.452Z,64.19
2018-05-16T09:13:40.523Z,63.97
2018-05-16T09:16:08.147Z,63.46
2018-05-16T09:18:35.752Z,65.42
2018-05-16T09:21:03.378Z,66.25
2018-05-16T09:23:30.991Z,67.79
2018-05-16T09:25:58.630Z,67.91
2018-05-16T09:28:26.234Z,67.11
2018-05-16T09:30:54.369Z,68.94
2018-05-16T09:33:22.140Z,68.69
2018-05-16T09:35:51.482Z,66.19
2018-05-16T09:38:19.448Z,65.62
2018-05-16T09:40:47.555Z,63.68
2018-05-16T09:43:24.379Z,61.60
2018-05-16T09:45:55.001Z,60.59
2018-05-16T09:48:23.087Z,62.23
2018-05-16T09:50:51.117Z,60.43
2018-05-16T09:53:18.888Z,60.77
2018-05-16T09:55:46.647Z,60.72
2018-05-16T09:58:14.334Z,59.85
2018-05-16T10:00:42.207Z,61.51
2018-05-16T10:03:09.930Z,61.39
2018-05-16T10:05:37.782Z,60.76
2018-05-16T10:08:05.451Z,62.89
2018-05-16T10:10:33.128Z,65.34
2018-05-16T10:13:00.746Z,63.94
2018-05-16T10:15:28.480Z,62.32
2018-05-16T10:17:56.106Z,60.98
2018-05-16T10:20:23.702Z,57.47
2018-05-16T10:22:51.667Z,57.18
2018-05-16T10:25:19.278Z,56.17
2018-05-16T10:27:47.133Z,55.47
2018-05-16T10:30:14.777Z,56.47
2018-05-16T10:32:42.657Z,58.13
2018-05-16T10:35:10.521Z,58.40
2018-05-16T10:37:38.891Z,57.92
2018-05-16T10:40:06.851Z,58.36
2018-05-16T10:42:34.613Z,58.01
2018-05-16T10:45:02.240Z,55.87
2018-05-16T10:47:30.004Z,55.96
2018-05-16T10:49:57.599Z,53.81
2018-05-16T10:52:25.599Z,54.17
2018-05-16T10:54:53.325Z,56.45
2018-05-16T10:57:21.135Z,51.09
2018-05-16T10:59:48.727Z,52.94
2018-05-16T11:02:16.328Z,53.15
2018-05-16T11:04:43.962Z,55.50
2018-05-16T11:07:11.558Z,56.26
2018-05-16T11:09:39.256Z,56.29
2018-05-16T11:12:06.861Z,55.95
2018-05-16T11:14:34.539Z,56.00
2018-05-16T11:17:02.149Z,57.74
2018-05-16T11:19:29.749Z,55.00
2018-05-16T11:21:57.655Z,55.42
2018-05-16T11:24:25.288Z,55.76
2018-05-16T11:26:52.935Z,54.98
2018-05-16T11:29:20.547Z,57.03
2018-05-16T11:31:48.207Z,52.84
2018-05-16T11:34:16.114Z,54.97
2018-05-16T11:36:43.851Z,56.24
2018-05-16T11:39:11.486Z,60.56
2018-05-16T11:41:40.727Z,71.00
2018-05-16T11:44:08.548Z,74.84
2018-05-16T11:46:36.160Z,77.91
2018-05-16T11:49:04.246Z,77.35
2018-05-16T11:51:31.589Z,80.79
2018-05-16T11:53:59.194Z,79.67
2018-05-16T11:56:26.832Z,78.45
2018-05-16T11:58:54.477Z,77.96
2018-05-16T12:01:22.096Z,77.49
2018-05-16T12:03:49.692Z,76.86
2018-05-16T12:06:17.624Z,78.92
2018-05-16T12:08:45.301Z,78.08
2018-05-16T12:11:12.913Z,76.24
2018-05-16T12:13:40.545Z,74.86
2018-05-16T12:16:08.146Z,75.69
2018-05-16T12:18:36.762Z,73.55
2018-05-16T12:21:04.636Z,74.27
2018-05-16T12:23:32.474Z,69.24
2018-05-16T12:28:27.188Z,63.62
2018-05-16T12:30:54.791Z,65.43
2018-05-16T12:33:25.035Z,61.52
2018-05-16T12:35:52.776Z,60.98
2018-05-16T12:38:20.379Z,63.14
2018-05-16T12:40:48.009Z,60.07
2018-05-16T12:43:17.813Z,59.76
2018-05-16T12:45:45.460Z,55.51
2018-05-16T12:48:13.098Z,55.64
2018-05-16T12:50:40.728Z,55.53
2018-05-16T12:53:08.331Z,55.79
2018-05-16T12:55:35.973Z,54.16
2018-05-16T12:58:03.647Z,55.72
2018-05-16T13:00:31.252Z,57.64
2018-05-16T13:02:58.897Z,60.35
2018-05-16T13:05:26.494Z,61.49
2018-05-16T13:07:54.146Z,63.06
2018-05-16T13:10:21.751Z,63.76
2018-05-16T13:12:49.416Z,64.00
2018-05-16T13:15:17.022Z,65.30
2018-05-16T13:17:44.724Z,66.42
2018-05-16T13:20:12.281Z,67.81
2018-05-16T13:22:40.271Z,67.83
2018-05-16T13:25:07.880Z,68.39
2018-05-16T13:27:35.503Z,68.28
2018-05-16T13:30:03.140Z,67.47
2018-05-16T13:32:30.756Z,67.11
2018-05-16T13:34:58.461Z,66.97
2018-05-16T13:37:26.070Z,67.71
2018-05-16T13:39:53.693Z,67.68
2018-05-16T13:42:21.372Z,66.22
2018-05-16T13:44:49.031Z,66.31
2018-05-16T13:47:16.911Z,65.98
2018-05-16T13:49:44.508Z,64.27
2018-05-16T13:52:12.107Z,65.56
2018-05-16T13:54:39.783Z,65.58
2018-05-16T13:57:07.456Z,65.00
2018-05-16T13:59:35.342Z,65.09
2018-05-16T14:02:02.971Z,63.89
2018-05-16T14:06:57.689Z,62.71
2018-05-16T14:09:25.291Z,61.49
2018-05-16T14:11:52.930Z,56.71
2018-05-16T14:14:20.549Z,56.44
2018-05-16T14:16:48.334Z,52.34
2018-05-16T14:19:15.938Z,52.05
2018-05-16T14:21:43.555Z,52.35
2018-05-16T14:24:11.262Z,51.56
2018-05-16T14:26:39.304Z,51.13
2018-05-16T14:29:07.188Z,52.28
2018-05-16T14:31:34.799Z,53.53
2018-05-16T14:34:03.942Z,53.10
2018-05-16T14:36:31.542Z,54.50
2018-05-16T14:38:59.164Z,53.97
2018-05-16T14:41:26.786Z,55.01
2018-05-16T14:43:54.637Z,55.65
2018-05-16T14:46:22.725Z,57.89
2018-05-16T14:48:50.524Z,55.45
2018-05-16T14:51:18.270Z,56.94
2018-05-16T14:53:45.874Z,56.14
2018-05-16T14:56:13.465Z,56.81
2018-05-16T14:58:41.099Z,54.57
2018-05-16T15:01:08.689Z,54.79
2018-05-16T15:03:36.311Z,55.32
2018-05-16T15:06:04.057Z,55.35
2018-05-16T15:08:32.122Z,54.66
2018-05-16T15:10:59.722Z,55.41
2018-05-16T15:13:27.312Z,56.18
2018-05-16T15:15:55.435Z,55.69
2018-05-16T15:18:23.027Z,56.17
2018-05-16T15:20:50.745Z,56.49
2018-05-16T15:23:18.358Z,56.49
2018-05-16T15:25:46.009Z,56.23
2018-05-16T15:28:13.923Z,58.27
2018-05-16T15:30:41.599Z,57.66
2018-05-16T15:33:09.256Z,57.67
2018-05-16T15:35:36.859Z,57.24
2018-05-16T15:38:04.475Z,56.91
2018-05-16T15:40:32.158Z,57.06
2018-05-16T15:42:59.914Z,56.57
2018-05-16T15:45:27.509Z,57.78
2018-05-16T15:47:55.094Z,57.57
2018-05-16T15:50:22.708Z,57.05
2018-05-16T15:52:50.359Z,58.33
2018-05-16T15:55:17.980Z,58.81
2018-05-16T15:57:45.580Z,59.29
2018-05-16T16:00:13.342Z,61.99
2018-05-16T16:02:41.023Z,63.61
2018-05-16T16:05:08.818Z,64.39
2018-05-16T16:07:36.460Z,63.52
2018-05-16T16:10:04.051Z,61.52
2018-05-16T16:12:31.678Z,62.90
2018-05-16T16:14:59.742Z,66.10
2018-05-16T16:17:27.526Z,67.73
2018-05-16T16:19:55.131Z,69.94
2018-05-16T16:22:22.995Z,69.53
2018-05-16T16:24:50.691Z,70.02
2018-05-16T16:27:18.286Z,69.65
2018-05-16T16:29:45.903Z,70.17
2018-05-16T16:32:13.507Z,70.88
2018-05-16T16:34:41.146Z,69.21
2018-05-16T16:37:08.747Z,66.07
2018-05-16T16:39:36.380Z,65.65
2018-05-16T16:42:04.010Z,64.26
2018-05-16T16:44:31.608Z,64.55
2018-05-16T16:46:59.330Z,63.68
2018-05-16T16:49:26.938Z,64.00
2018-05-16T16:51:55.002Z,64.21
2018-05-16T16:54:22.631Z,61.46
2018-05-16T16:56:50.251Z,61.96
2018-05-16T16:59:18.058Z,62.23
2018-05-16T17:01:45.711Z,61.12
2018-05-16T17:04:15.054Z,61.47
2018-05-16T17:06:42.653Z,62.17
2018-05-16T17:09:10.565Z,62.26
2018-05-16T17:11:38.162Z,63.02
2018-05-16T17:14:05.860Z,62.66
2018-05-16T17:16:33.421Z,61.69
2018-05-16T17:19:01.042Z,60.23
2018-05-16T17:21:28.643Z,61.75
2018-05-16T17:23:56.277Z,61.73
2018-05-16T17:26:23.877Z,63.52
2018-05-16T17:28:51.510Z,61.88
2018-05-16T17:31:19.111Z,65.71
2018-05-16T17:33:46.990Z,70.01
2018-05-16T17:36:14.590Z,72.13
2018-05-16T17:38:42.194Z,75.29
2018-05-16T17:41:09.842Z,76.37
2018-05-16T17:43:37.491Z,78.18
2018-05-16T17:46:05.127Z,74.20
2018-05-16T17:48:32.784Z,76.49
2018-05-16T17:51:00.618Z,73.98
2018-05-16T17:53:28.290Z,74.08
2018-05-16T17:55:55.966Z,72.62
2018-05-16T17:58:23.597Z,73.69
2018-05-16T18:00:51.326Z,74.67
2018-05-16T18:03:18.869Z,75.96
2018-05-16T18:05:46.487Z,77.62
2018-05-16T18:08:14.109Z,76.63
2018-05-16T18:10:41.723Z,76.42
2018-05-16T18:16:37.705Z,76.61
2018-05-16T18:19:05.588Z,72.44
2018-05-16T18:21:33.225Z,73.51
2018-05-16T18:24:00.835Z,70.74
2018-05-16T18:26:28.454Z,74.00
2018-05-16T18:28:56.139Z,70.98
2018-05-16T18:31:23.760Z,71.22
2018-05-16T18:33:51.588Z,73.84
2018-05-16T18:36:19.216Z,74.18
2018-05-16T18:38:46.915Z,74.62
2018-05-16T18:41:14.637Z,74.35
2018-05-16T18:43:42.230Z,72.28
2018-05-16T18:46:09.855Z,72.30
2018-05-16T18:48:37.500Z,72.65
2018-05-16T18:51:05.120Z,75.55
2018-05-16T18:53:32.779Z,74.11
2018-05-16T18:56:00.520Z,74.04
2018-05-16T18:58:28.117Z,74.28
2018-05-16T19:00:55.742Z,72.48
2018-05-16T19:03:23.343Z,73.03
2018-05-16T19:05:50.981Z,74.60
2018-05-16T19:08:18.579Z,74.88
2018-05-16T19:10:46.215Z,75.56
2018-05-16T19:13:13.826Z,75.94
2018-05-16T19:15:41.462Z,76.38
2018-05-16T19:18:09.072Z,76.88
2018-05-16T19:20:36.688Z,77.33
2018-05-16T19:23:04.302Z,75.99
2018-05-16T19:25:31.928Z,77.09
2018-05-16T19:27:59.523Z,77.57
2018-05-16T19:30:27.148Z,76.00
2018-05-16T19:32:54.759Z,76.63
2018-05-16T19:35:22.587Z,77.64
2018-05-16T19:37:50.245Z,77.93
2018-05-16T19:40:17.879Z,77.88
2018-05-16T19:42:45.537Z,78.36
2018-05-16T19:45:13.137Z,78.72
2018-05-16T19:47:40.792Z,78.38
2018-05-16T19:50:08.400Z,78.84
2018-05-16T19:52:36.171Z,77.31
2018-05-16T19:55:03.820Z,78.36
2018-05-16T19:57:31.455Z,77.67
2018-05-16T19:59:59.082Z,77.88
2018-05-16T20:02:26.971Z,79.44
2018-05-16T20:04:54.604Z,79.31
2018-05-16T20:07:22.225Z,78.00
2018-05-16T20:09:49.872Z,78.63
2018-05-16T20:12:17.491Z,78.34
2018-05-16T20:14:45.191Z,79.08
2018-05-16T20:17:12.756Z,79.89
2018-05-16T20:19:40.633Z,79.26
2018-05-16T20:22:08.249Z,79.55
2018-05-16T20:24:35.857Z,79.64
2018-05-16T20:27:03.477Z,79.72
2018-05-16T20:29:31.178Z,79.79
2018-05-16T20:31:58.746Z,78.86
2018-05-16T20:34:26.350Z,77.98
2018-05-16T20:36:54.446Z,79.06
2018-05-16T20:39:22.045Z,78.72
2018-05-16T20:41:49.736Z,80.88
2018-05-16T20:44:17.372Z,81.68
2018-05-16T20:46:44.978Z,82.16
2018-05-16T20:49:12.612Z,83.51
2018-05-16T20:51:40.230Z,83.29
2018-05-16T20:54:07.891Z,84.10
2018-05-16T20:56:35.532Z,83.89
2018-05-16T20:59:03.139Z,84.05
2018-05-16T21:01:30.774Z,84.79
2018-05-16T21:03:58.381Z,84.12
2018-05-16T21:06:26.007Z,84.30
2018-05-16T21:08:53.682Z,84.00
2018-05-16T21:11:21.340Z,83.87
2018-05-16T21:13:48.957Z,84.44
2018-05-16T21:16:16.590Z,84.09
2018-05-16T21:18:44.232Z,84.77
2018-05-16T21:21:11.841Z,84.92
2018-05-16T21:23:39.822Z,85.43
2018-05-16T21:26:07.437Z,85.48
2018-05-16T21:28:35.068Z,85.46
2018-05-16T21:31:02.708Z,85.47
2018-05-16T21:33:30.317Z,84.65
2018-05-16T21:35:57.947Z,85.05
2018-05-16T21:38:25.558Z,83.57
2018-05-16T21:40:53.196Z,83.26
2018-05-16T21:43:20.810Z,82.65
2018-05-16T21:45:48.446Z,82.54
2018-05-16T21:48:16.048Z,82.55
2018-05-16T21:50:43.650Z,82.13
2018-05-16T21:53:11.271Z,81.26
2018-05-16T21:55:38.882Z,80.81
2018-05-16T21:58:06.512Z,80.27
2018-05-16T22:00:34.132Z,80.45
2018-05-16T22:03:02.123Z,79.92
2018-05-16T22:05:30.111Z,80.30
2018-05-16T22:07:57.718Z,79.89
2018-05-16T22:10:25.362Z,80.15
2018-05-16T22:12:52.962Z,80.17
2018-05-16T22:15:20.590Z,79.96
2018-05-16T22:17:48.187Z,79.73
2018-05-16T22:20:15.988Z,80.35
2018-05-16T22:22:43.596Z,80.17
2018-05-16T22:25:11.193Z,80.60
2018-05-16T22:27:38.808Z,80.59
2018-05-16T22:30:05.850Z,80.09
2018-05-16T22:32:39.024Z,80.31
2018-05-16T22:35:12.004Z,80.62
2018-05-16T22:37:45.220Z,80.26
2018-05-16T22:40:18.272Z,80.76
2018-05-16T22:42:45.329Z,81.15
2018-05-16T22:45:18.398Z,81.02
2018-05-16T22:47:46.021Z,80.71
2018-05-16T22:50:13.623Z,80.21
2018-05-16T22:52:41.239Z,79.79
2018-05-16T22:55:08.830Z,79.82
2018-05-16T22:57:36.812Z,79.36
2018-05-16T23:00:04.421Z,79.99
2018-05-16T23:02:32.035Z,80.78
2018-05-16T23:04:59.647Z,79.29
2018-05-16T23:07:27.243Z,78.34
2018-05-16T23:09:54.860Z,78.76
2018-05-16T23:12:22.458Z,77.75
2018-05-16T23:14:50.414Z,77.41
2018-05-16T23:17:18.008Z,77.39
2018-05-16T23:19:45.605Z,77.85
2018-05-16T23:22:13.949Z,75.55
2018-05-16T23:24:41.537Z,77.81
2018-05-16T23:27:09.153Z,78.17
2018-05-16T23:29:36.790Z,78.49
2018-05-16T23:32:04.634Z,79.14
2018-05-16T23:34:32.265Z,79.40
2018-05-16T23:36:59.888Z,78.86
2018-05-16T23:39:27.523Z,78.54
2018-05-16T23:41:55.168Z,79.46
2018-05-16T23:44:22.791Z,78.83
2018-05-16T23:46:50.436Z,78.25
2018-05-16T23:49:18.443Z,78.80
2018-05-16T23:51:46.051Z,78.76
2018-05-16T23:54:13.651Z,77.86
2018-05-16T23:56:41.270Z,79.02
2018-05-16T23:59:08.866Z,78.69
